Time;durP1;ratioP1;P1;durP2;ratioP2;P2;SDS_P1;SDS_P2;PMS_P1;PMS_P2;Temp;Humidity;BMP_temperature;BMP_pressure;BME280_temperature;BME280_humidity;BME280_pressure;Samples;Min_cycle;Max_cycle;Signal;HPM_P1;HPM_P2
2022/06/26 00:00:06;;;;;;;4.90;4.00;;;;;;;22.67;48.40;100372.00;106361;1274;26505;-78
2022/06/26 00:02:34;;;;;;;4.40;3.80;;;;;;;22.65;48.53;100372.34;106425;1271;22579;-77
2022/06/26 00:05:01;;;;;;;3.90;3.50;;;;;;;22.60;48.47;100372.77;106087;1270;22550;-83
2022/06/26 00:07:27;;;;;;;4.50;3.60;;;;;;;22.56;48.67;100374.46;105921;1271;24333;-78
2022/06/26 00:09:54;;;;;;;4.30;3.90;;;;;;;22.52;48.75;100371.45;106378;1270;23703;-75
2022/06/26 00:12:20;;;;;;;5.40;3.90;;;;;;;22.55;48.66;100375.58;106037;1272;24247;-78
2022/06/26 00:14:46;;;;;;;5.20;3.80;;;;;;;22.53;48.54;100380.36;106383;1270;25380;-77
2022/06/26 00:17:12;;;;;;;7.60;3.50;;;;;;;22.47;48.60;100378.88;106403;1271;23796;-77
2022/06/26 00:19:39;;;;;;;6.30;3.50;;;;;;;22.46;48.78;100380.62;106782;1277;24257;-77
2022/06/26 00:22:06;;;;;;;6.00;3.30;;;;;;;22.41;48.85;100384.64;106316;1278;25281;-74
2022/06/26 00:24:33;;;;;;;5.70;4.00;;;;;;;22.42;48.94;100383.90;105814;1278;22575;-82
2022/06/26 00:27:02;;;;;;;4.40;3.80;;;;;;;22.42;49.13;100388.20;105785;1277;23982;-77
2022/06/26 00:29:33;;;;;;;4.20;3.60;;;;;;;22.36;49.13;100386.94;106002;1277;24346;-79
2022/06/26 00:32:01;;;;;;;11.20;3.80;;;;;;;22.32;49.23;100388.07;105854;1277;22697;-77
2022/06/26 00:34:27;;;;;;;6.60;3.90;;;;;;;22.32;49.32;100388.77;105993;1276;24157;-77
2022/06/26 00:36:54;;;;;;;6.40;4.10;;;;;;;22.31;49.36;100388.11;105941;1276;22726;-77
2022/06/26 00:39:20;;;;;;;4.40;3.60;;;;;;;22.30;49.28;100387.09;106174;1271;22535;-78
2022/06/26 00:41:46;;;;;;;6.40;4.20;;;;;;;22.27;49.35;100389.42;106392;1271;25337;-78
2022/06/26 00:44:15;;;;;;;5.10;3.70;;;;;;;22.22;49.33;100391.30;106203;1270;25615;-76
2022/06/26 00:46:43;;;;;;;5.70;4.10;;;;;;;22.21;49.39;100394.57;106206;1270;23177;-77
2022/06/26 00:49:10;;;;;;;7.90;3.80;;;;;;;22.21;49.69;100394.56;106146;1271;24411;-77
2022/06/26 00:51:44;;;;;;;5.50;3.40;;;;;;;22.20;49.61;100392.13;107424;1271;23021;-78
2022/06/26 00:54:11;;;;;;;7.00;4.20;;;;;;;22.19;49.65;100398.09;107864;1270;23943;-75
2022/06/26 00:56:38;;;;;;;4.80;3.90;;;;;;;22.16;49.71;100392.54;106986;1271;23026;-76
2022/06/26 00:59:05;;;;;;;7.10;3.80;;;;;;;22.16;49.64;100395.58;106070;1272;22549;-77
2022/06/26 01:01:34;;;;;;;5.50;3.60;;;;;;;22.13;49.77;100400.42;106122;1271;22619;-78
2022/06/26 01:04:02;;;;;;;6.10;4.00;;;;;;;22.10;49.83;100403.47;106173;1271;22557;-76
2022/06/26 01:06:29;;;;;;;4.90;4.40;;;;;;;22.04;50.00;100403.98;106230;1270;22595;-80
2022/06/26 01:08:58;;;;;;;6.40;4.10;;;;;;;22.03;50.03;100409.98;106250;1270;25251;-79
2022/06/26 01:11:26;;;;;;;5.30;3.70;;;;;;;22.02;49.87;100409.64;106239;1270;22553;-78
2022/06/26 01:13:57;;;;;;;4.50;3.40;;;;;;;22.02;50.10;100407.30;106334;1270;22866;-77
2022/06/26 01:16:25;;;;;;;5.40;3.80;;;;;;;22.00;49.95;100405.29;106100;1270;22744;-78
2022/06/26 01:18:55;;;;;;;5.80;4.10;;;;;;;21.97;50.14;100409.04;106376;1271;22531;-77
2022/06/26 01:21:24;;;;;;;9.30;3.70;;;;;;;21.95;50.23;100408.06;106409;1270;22666;-77
2022/06/26 01:23:51;;;;;;;5.80;4.00;;;;;;;21.93;50.25;100406.77;106377;1270;22547;-78
2022/06/26 01:26:18;;;;;;;6.30;3.90;;;;;;;21.91;50.35;100412.93;106149;1274;25376;-79
2022/06/26 01:28:44;;;;;;;4.90;3.80;;;;;;;21.89;50.45;100409.48;105994;1270;24338;-78
2022/06/26 01:31:12;;;;;;;4.30;3.90;;;;;;;21.89;50.45;100414.48;107590;1270;24684;-75
2022/06/26 01:33:39;;;;;;;5.90;4.00;;;;;;;21.89;50.46;100414.33;108805;1271;25318;-77
2022/06/26 01:36:06;;;;;;;5.80;4.50;;;;;;;21.88;50.50;100412.25;108815;1270;22536;-76
2022/06/26 01:38:34;;;;;;;4.80;3.90;;;;;;;21.83;50.50;100414.14;108535;1271;22585;-75
2022/06/26 01:41:01;;;;;;;6.70;4.20;;;;;;;21.81;50.64;100417.83;108482;1271;22711;-75
2022/06/26 01:43:32;;;;;;;4.30;3.80;;;;;;;21.81;50.72;100419.23;108492;1270;24651;-76
2022/06/26 01:45:59;;;;;;;5.70;3.90;;;;;;;21.81;50.83;100418.70;107895;1270;22551;-75
2022/06/26 01:48:31;;;;;;;5.30;4.00;;;;;;;21.80;50.78;100425.05;107834;1270;22685;-75
2022/06/26 01:50:59;;;;;;;5.10;4.10;;;;;;;21.77;50.94;100422.14;107108;1270;24690;-75
2022/06/26 01:53:28;;;;;;;5.60;3.90;;;;;;;21.74;51.02;100428.73;108036;1270;24225;-76
2022/06/26 01:55:54;;;;;;;8.20;4.20;;;;;;;21.72;51.21;100430.83;107475;1270;22547;-75
2022/06/26 01:58:27;;;;;;;7.40;3.80;;;;;;;21.70;51.20;100435.94;106607;1270;24645;-78
2022/06/26 02:00:54;;;;;;;4.80;4.30;;;;;;;21.66;51.24;100436.91;106209;1271;25261;-78
2022/06/26 02:03:23;;;;;;;9.00;4.50;;;;;;;21.63;51.32;100437.92;106494;1270;22615;-77
2022/06/26 02:05:50;;;;;;;5.80;4.20;;;;;;;21.60;51.42;100441.90;106168;1270;22548;-77
2022/06/26 02:08:17;;;;;;;5.30;4.30;;;;;;;21.57;51.42;100439.19;106206;1270;25398;-74
2022/06/26 02:13:45;;;;;;;4.90;4.30;;;;;;;21.48;51.70;100443.41;106107;1271;22628;-79
2022/06/26 02:16:17;;;;;;;5.40;4.00;;;;;;;21.46;51.79;100444.92;106054;1273;22611;-78
2022/06/26 02:18:47;;;;;;;6.00;4.10;;;;;;;21.45;51.84;100441.05;105825;1271;25306;-77
2022/06/26 02:21:16;;;;;;;7.00;4.40;;;;;;;21.45;52.03;100442.34;106067;1271;25723;-79
2022/06/26 02:23:44;;;;;;;6.00;4.20;;;;;;;21.43;52.04;100444.06;106093;1273;22548;-77
2022/06/26 02:26:11;;;;;;;5.40;4.30;;;;;;;21.42;52.00;100445.73;106032;1273;22552;-79
2022/06/26 02:28:39;;;;;;;5.00;4.40;;;;;;;21.38;52.16;100445.21;106098;1271;22615;-82
2022/06/26 02:31:06;;;;;;;6.30;4.30;;;;;;;21.36;52.27;100450.65;106253;1270;24231;-77
2022/06/26 02:33:34;;;;;;;8.30;4.70;;;;;;;21.34;52.41;100450.77;106326;1270;22803;-75
2022/06/26 02:36:03;;;;;;;5.30;4.20;;;;;;;21.32;52.50;100449.66;106153;1270;22536;-76
2022/06/26 02:38:30;;;;;;;6.00;4.50;;;;;;;21.31;52.66;100452.56;106161;1270;22556;-76
2022/06/26 02:40:58;;;;;;;4.80;4.30;;;;;;;21.30;52.69;100446.86;106277;1270;22560;-76
2022/06/26 02:43:26;;;;;;;9.60;4.60;;;;;;;21.30;52.93;100450.11;106238;1270;25325;-76
2022/06/26 02:45:54;;;;;;;5.00;4.60;;;;;;;21.26;52.99;100450.33;106259;1271;22552;-76
2022/06/26 02:48:22;;;;;;;5.50;4.80;;;;;;;21.24;53.10;100455.42;106302;1270;25178;-75
2022/06/26 02:50:49;;;;;;;5.90;4.70;;;;;;;21.23;53.24;100461.38;106227;1270;25445;-80
2022/06/26 02:53:17;;;;;;;9.50;5.00;;;;;;;21.21;53.39;100463.45;106123;1273;22548;-79
2022/06/26 02:55:43;;;;;;;5.60;4.80;;;;;;;21.20;53.42;100460.31;106185;1270;22587;-79
2022/06/26 02:58:11;;;;;;;7.80;4.90;;;;;;;21.16;53.55;100462.83;106150;1270;25265;-76
2022/06/26 03:00:42;;;;;;;5.90;4.70;;;;;;;21.14;53.62;100459.33;106479;1270;22630;-77
2022/06/26 03:03:08;;;;;;;5.90;4.90;;;;;;;21.14;53.78;100463.28;106563;1270;25261;-77
2022/06/26 03:05:35;;;;;;;5.90;4.80;;;;;;;21.13;53.81;100466.20;106288;1270;22557;-79
2022/06/26 03:08:04;;;;;;;7.00;5.00;;;;;;;21.13;53.90;100468.00;106067;1271;22553;-79
2022/06/26 03:10:31;;;;;;;6.50;5.00;;;;;;;21.13;53.95;100467.84;106265;1270;22614;-75
2022/06/26 03:13:00;;;;;;;5.70;5.00;;;;;;;21.10;54.05;100471.36;106244;1272;25367;-78
2022/06/26 03:15:27;;;;;;;5.30;4.50;;;;;;;21.08;54.21;100471.28;106479;1271;22543;-74
2022/06/26 03:17:55;;;;;;;6.70;5.10;;;;;;;21.07;54.24;100472.95;106754;1272;22547;-76
2022/06/26 03:20:21;;;;;;;6.00;4.70;;;;;;;21.08;54.35;100472.39;106967;1271;22638;-75
2022/06/26 03:22:50;;;;;;;8.80;5.10;;;;;;;21.08;54.39;100475.61;106954;1271;23381;-75
2022/06/26 03:25:17;;;;;;;5.90;4.70;;;;;;;21.07;54.35;100478.33;106214;1271;22553;-77
2022/06/26 03:27:44;;;;;;;6.90;5.10;;;;;;;21.04;54.34;100482.77;106154;1271;24219;-77
2022/06/26 03:30:11;;;;;;;5.10;4.30;;;;;;;21.03;54.38;100481.03;106171;1271;22552;-78
2022/06/26 03:32:41;;;;;;;4.70;4.30;;;;;;;21.03;54.31;100479.78;106225;1271;25388;-77
2022/06/26 03:35:09;;;;;;;5.40;4.50;;;;;;;21.01;54.23;100485.05;106381;1270;25270;-77
2022/06/26 03:37:35;;;;;;;7.80;4.40;;;;;;;21.03;54.20;100487.80;106299;1270;22553;-76
2022/06/26 03:40:06;;;;;;;5.30;4.50;;;;;;;21.02;54.20;100484.64;106324;1269;25228;-78
2022/06/26 03:42:32;;;;;;;5.50;4.90;;;;;;;21.02;54.20;100484.29;106113;1271;25920;-76
2022/06/26 03:44:59;;;;;;;7.10;5.00;;;;;;;21.04;54.15;100487.25;106292;1270;22547;-78
2022/06/26 03:47:25;;;;;;;5.20;4.70;;;;;;;21.05;54.09;100486.13;106225;1270;25274;-77
2022/06/26 03:49:54;;;;;;;5.30;4.80;;;;;;;21.07;54.13;100488.36;106217;1270;25548;-79
2022/06/26 03:52:23;;;;;;;7.60;4.60;;;;;;;21.08;54.13;100488.48;105640;1278;22657;-77
2022/06/26 03:54:52;;;;;;;5.70;4.50;;;;;;;21.05;54.08;100485.73;105638;1278;23064;-77
2022/06/26 03:57:20;;;;;;;6.30;4.70;;;;;;;21.09;53.95;100492.70;105903;1278;25581;-78
2022/06/26 03:59:51;;;;;;;5.30;4.50;;;;;;;21.04;53.94;100485.08;106184;1278;25245;-78
2022/06/26 04:02:24;;;;;;;5.80;4.40;;;;;;;21.08;53.87;100493.34;106567;1278;22628;-76
2022/06/26 04:04:50;;;;;;;6.30;4.60;;;;;;;21.06;53.85;100494.31;106808;1279;22562;-77
2022/06/26 04:07:16;;;;;;;6.60;4.70;;;;;;;21.08;53.77;100497.28;106584;1280;24352;-75
2022/06/26 04:09:45;;;;;;;5.80;4.50;;;;;;;21.10;53.91;100500.00;106675;1274;22524;-76
2022/06/26 04:12:17;;;;;;;4.80;4.10;;;;;;;21.12;53.96;100498.47;107332;1274;25251;-78
2022/06/26 04:14:46;;;;;;;10.80;4.80;;;;;;;21.15;53.82;100501.54;107060;1274;25300;-77
2022/06/26 04:17:13;;;;;;;6.40;4.60;;;;;;;21.18;53.73;100501.95;106952;1272;24274;-77
2022/06/26 04:20:00;;;;;;;5.40;4.40;;;;;;;21.20;53.75;100499.85;105915;1280;26042;-75
2022/06/26 04:22:26;;;;;;;5.90;4.50;;;;;;;21.23;53.74;100506.88;105585;1280;269377;-78
2022/06/26 04:24:52;;;;;;;5.40;4.20;;;;;;;21.25;53.52;100506.58;105720;1280;22631;-77
2022/06/26 04:27:19;;;;;;;8.90;4.60;;;;;;;21.29;53.50;100507.46;105712;1279;24388;-77
2022/06/26 04:29:45;;;;;;;4.90;4.40;;;;;;;21.31;53.39;100503.92;105703;1276;24286;-79
2022/06/26 04:32:12;;;;;;;6.00;4.10;;;;;;;21.36;53.38;100512.48;105893;1276;24350;-77
2022/06/26 04:34:41;;;;;;;7.60;4.30;;;;;;;21.39;53.48;100515.38;105465;1281;22567;-76
2022/06/26 04:37:07;;;;;;;4.40;4.00;;;;;;;21.42;53.28;100517.70;105716;1276;22856;-77
2022/06/26 04:39:33;;;;;;;10.30;4.40;;;;;;;21.45;53.10;100519.36;105960;1276;22544;-79
2022/06/26 04:42:03;;;;;;;4.50;3.70;;;;;;;21.48;53.10;100519.91;105543;1281;25375;-75
2022/06/26 04:44:33;;;;;;;6.30;4.50;;;;;;;21.49;52.98;100516.98;105539;1281;23178;-76
2022/06/26 04:46:59;;;;;;;6.00;4.00;;;;;;;21.51;52.75;100522.41;105503;1281;22729;-78
2022/06/26 04:49:30;;;;;;;5.10;4.40;;;;;;;21.55;52.65;100520.11;105383;1281;22667;-77
2022/06/26 04:51:56;;;;;;;4.20;3.80;;;;;;;21.57;52.62;100522.33;105515;1276;25267;-78
2022/06/26 04:54:31;;;;;;;5.70;4.10;;;;;;;21.60;52.31;100519.10;105827;1276;22543;-79
2022/06/26 04:56:57;;;;;;;5.50;4.90;;;;;;;21.63;52.32;100521.07;105763;1276;22543;-78
2022/06/26 04:59:25;;;;;;;7.70;4.20;;;;;;;21.66;52.11;100520.42;105622;1271;22667;-77
2022/06/26 05:01:59;;;;;;;5.20;3.90;;;;;;;21.69;51.99;100524.35;106157;1271;22652;-77
2022/06/26 05:04:44;;;;;;;4.40;4.00;;;;;;;21.73;51.94;100525.20;106339;1271;24514;-77
2022/06/26 05:07:34;;;;;;;4.50;4.10;;;;;;;21.78;51.75;100527.84;106161;1270;25337;-75
2022/06/26 05:10:02;;;;;;;10.50;3.90;;;;;;;21.82;51.80;100528.88;106072;1270;22514;-77
2022/06/26 05:12:36;;;;;;;4.80;4.20;;;;;;;21.85;51.54;100532.67;106206;1270;22546;-76
2022/06/26 05:15:14;;;;;;;4.50;4.10;;;;;;;21.89;51.56;100534.59;106132;1270;22557;-76
2022/06/26 05:17:44;;;;;;;4.70;3.70;;;;;;;21.93;51.37;100537.41;106134;1270;22545;-76
2022/06/26 05:20:14;;;;;;;4.60;3.90;;;;;;;21.98;51.49;100538.25;106140;1270;22635;-77
2022/06/26 05:22:40;;;;;;;7.10;4.50;;;;;;;22.03;51.33;100540.66;106006;1270;24246;-76
2022/06/26 05:25:08;;;;;;;6.20;3.90;;;;;;;22.07;51.43;100543.66;106060;1270;22592;-77
2022/06/26 05:27:35;;;;;;;4.80;4.00;;;;;;;22.11;51.43;100545.43;106019;1271;22787;-79
2022/06/26 05:30:04;;;;;;;7.30;4.10;;;;;;;22.16;51.51;100547.30;106162;1271;22554;-78
2022/06/26 05:32:36;;;;;;;4.80;4.10;;;;;;;22.22;51.51;100550.02;106137;1272;25269;-77
2022/06/26 05:35:07;;;;;;;6.50;4.10;;;;;;;22.26;51.29;100553.73;106251;1271;25325;-76
2022/06/26 05:37:33;;;;;;;7.10;4.10;;;;;;;22.32;51.38;100553.46;106035;1270;22558;-78
2022/06/26 05:40:00;;;;;;;4.10;3.70;;;;;;;22.35;51.38;100553.61;106191;1270;22553;-79
2022/06/26 05:42:34;;;;;;;5.30;4.00;;;;;;;22.40;51.17;100555.33;106103;1270;25271;-75
2022/06/26 05:45:04;;;;;;;6.20;4.10;;;;;;;22.44;51.27;100562.98;106256;1270;25193;-78
2022/06/26 05:47:31;;;;;;;4.50;3.90;;;;;;;22.48;51.17;100566.36;106123;1270;22559;-77
2022/06/26 05:50:16;;;;;;;6.50;4.30;;;;;;;22.52;50.87;100569.36;106319;1270;24724;-83
2022/06/26 05:52:55;;;;;;;6.90;4.10;;;;;;;22.56;50.74;100562.86;106080;1272;25386;-79
2022/06/26 05:55:45;;;;;;;7.50;3.70;;;;;;;22.61;51.12;100570.12;106160;1270;24244;-77
2022/06/26 05:58:30;;;;;;;4.70;4.20;;;;;;;22.67;50.77;100570.36;106211;1270;22872;-76
2022/06/26 06:01:13;;;;;;;7.60;4.10;;;;;;;22.71;50.46;100572.46;106234;1271;25338;-75
2022/06/26 06:03:39;;;;;;;4.70;4.20;;;;;;;22.75;50.37;100572.94;106343;1270;22639;-78
2022/06/26 06:06:06;;;;;;;4.60;4.20;;;;;;;22.80;50.18;100577.19;106340;1270;22566;-80
2022/06/26 06:08:33;;;;;;;4.90;4.40;;;;;;;22.83;50.17;100575.71;106331;1270;26584;-79
2022/06/26 06:10:59;;;;;;;3.80;3.50;;;;;;;22.86;49.99;100572.14;106269;1270;25419;-80
2022/06/26 06:13:25;;;;;;;5.60;4.30;;;;;;;22.91;49.91;100578.52;106350;1270;22564;-77
2022/06/26 06:15:52;;;;;;;4.20;3.40;;;;;;;22.95;49.64;100578.98;106773;1270;22531;-77
2022/06/26 06:18:19;;;;;;;6.60;3.70;;;;;;;23.00;49.43;100582.99;107282;1270;22603;-75
2022/06/26 06:20:46;;;;;;;3.80;3.30;;;;;;;23.05;49.31;100581.28;106375;1270;22991;-80
2022/06/26 06:23:32;;;;;;;3.50;3.20;;;;;;;23.10;49.02;100584.94;106244;1270;24101;-78
2022/06/26 06:25:59;;;;;;;7.20;4.10;;;;;;;23.13;48.93;100586.55;106241;1270;24667;-78
2022/06/26 06:28:26;;;;;;;3.50;3.10;;;;;;;23.21;48.55;100588.63;106183;1270;22531;-76
2022/06/26 06:30:52;;;;;;;7.40;3.40;;;;;;;23.29;48.55;100590.85;106170;1270;22577;-79
2022/06/26 06:33:22;;;;;;;7.70;3.30;;;;;;;23.36;48.07;100591.86;106347;1270;22730;-77
2022/06/26 06:35:51;;;;;;;4.90;3.10;;;;;;;23.41;47.68;100589.77;106008;1270;22790;-77
2022/06/26 06:38:17;;;;;;;5.50;3.20;;;;;;;23.47;47.91;100588.55;106213;1270;24257;-76
2022/06/26 06:40:49;;;;;;;3.90;3.10;;;;;;;23.54;47.80;100590.15;106060;1270;22548;-79
2022/06/26 06:43:21;;;;;;;3.70;3.00;;;;;;;23.58;47.66;100594.16;106021;1270;22537;-75
2022/06/26 06:46:07;;;;;;;4.40;3.20;;;;;;;23.64;47.87;100594.52;106218;1270;22712;-79
2022/06/26 06:48:34;;;;;;;3.20;2.90;;;;;;;23.68;47.55;100595.58;106132;1270;22858;-78
2022/06/26 06:51:20;;;;;;;6.20;3.00;;;;;;;23.76;47.35;100599.76;106255;1270;22580;-78
2022/06/26 06:53:46;;;;;;;4.60;3.40;;;;;;;23.81;46.89;100601.60;106317;1270;22702;-77
2022/06/26 06:56:13;;;;;;;6.90;3.50;;;;;;;23.87;46.71;100602.48;106303;1270;22550;-77
2022/06/26 06:58:39;;;;;;;8.10;3.10;;;;;;;23.92;46.70;100602.55;106080;1271;24318;-77
2022/06/26 07:01:06;;;;;;;4.20;2.90;;;;;;;23.95;46.72;100600.73;106195;1270;22696;-76
2022/06/26 07:03:33;;;;;;;5.20;2.80;;;;;;;24.03;46.53;100599.55;106199;1270;22556;-76
2022/06/26 07:05:59;;;;;;;4.80;3.60;;;;;;;24.08;46.09;100604.23;106055;1272;22703;-78
2022/06/26 07:08:28;;;;;;;3.20;3.00;;;;;;;24.14;45.65;100605.88;106107;1271;25449;-79
2022/06/26 07:10:55;;;;;;;5.70;2.80;;;;;;;24.19;45.37;100600.34;106218;1271;25276;-77
2022/06/26 07:13:22;;;;;;;4.20;2.40;;;;;;;24.26;45.06;100602.09;106480;1271;22649;-77
2022/06/26 07:15:49;;;;;;;5.70;3.00;;;;;;;24.34;44.31;100605.36;106124;1273;25287;-81
2022/06/26 07:18:16;;;;;;;3.30;2.70;;;;;;;24.42;44.68;100602.52;106276;1271;22806;-79
2022/06/26 07:20:42;;;;;;;3.80;3.00;;;;;;;24.49;44.25;100599.77;106620;1271;22598;-77
2022/06/26 07:23:09;;;;;;;3.80;2.60;;;;;;;24.54;44.15;100595.11;107793;1271;26565;-79
2022/06/26 07:25:44;;;;;;;;;;;;;;;24.64;44.26;100599.88;106093;1273;22656;-80
2022/06/26 07:28:11;;;;;;;4.80;2.40;;;;;;;24.67;44.03;100595.66;106231;1270;22690;-76
2022/06/26 07:30:37;;;;;;;6.60;2.80;;;;;;;24.79;44.19;100596.00;106330;1271;22569;-75
2022/06/26 07:33:04;;;;;;;3.80;2.60;;;;;;;24.90;44.30;100595.52;106266;1271;24236;-77
2022/06/26 07:35:31;;;;;;;4.80;2.60;;;;;;;24.99;44.24;100596.52;106061;1274;23967;-79
2022/06/26 07:38:01;;;;;;;3.00;2.60;;;;;;;25.08;43.78;100598.48;106028;1270;22620;-79
2022/06/26 07:40:27;;;;;;;3.90;2.70;;;;;;;25.16;43.22;100593.42;106185;1270;25396;-80
2022/06/26 07:42:54;;;;;;;3.40;2.40;;;;;;;25.24;42.63;100593.98;106100;1270;24361;-80
2022/06/26 07:45:23;;;;;;;3.50;2.40;;;;;;;25.32;42.80;100590.39;105797;1276;22796;-79
2022/06/26 07:47:59;;;;;;;3.50;2.40;;;;;;;25.43;42.30;100598.25;105549;1278;25334;-79
2022/06/26 07:50:25;;;;;;;3.10;2.80;;;;;;;25.52;41.86;100598.61;105705;1276;22539;-79
2022/06/26 07:52:52;;;;;;;3.70;3.20;;;;;;;25.57;41.68;100593.39;105731;1276;22634;-81
2022/06/26 07:55:18;;;;;;;3.00;2.50;;;;;;;25.64;41.87;100594.38;105865;1276;24266;-76
2022/06/26 07:57:44;;;;;;;4.70;2.40;;;;;;;25.74;41.91;100592.79;105903;1276;22927;-80
2022/06/26 08:00:10;;;;;;;4.50;2.30;;;;;;;25.84;41.57;100591.91;106247;1276;22579;-75
2022/06/26 08:02:39;;;;;;;2.80;2.60;;;;;;;25.96;41.53;100592.88;106492;1276;26527;-78
2022/06/26 08:05:06;;;;;;;2.80;2.30;;;;;;;26.08;41.03;100592.92;106528;1273;25326;-79
2022/06/26 08:07:33;;;;;;;5.90;2.60;;;;;;;26.16;40.66;100594.89;106851;1271;24274;-78
2022/06/26 08:10:00;;;;;;;2.80;2.60;;;;;;;26.24;40.33;100590.88;107458;1270;22571;-76
2022/06/26 08:12:27;;;;;;;3.70;2.70;;;;;;;26.33;40.37;100594.23;106792;1270;22650;-78
2022/06/26 08:14:53;;;;;;;3.10;2.80;;;;;;;26.46;40.74;100597.27;106978;1277;22571;-77
2022/06/26 08:17:19;;;;;;;3.60;2.20;;;;;;;26.57;40.05;100600.98;106735;1278;22784;-78
2022/06/26 08:19:47;;;;;;;4.90;2.30;;;;;;;26.67;39.74;100596.79;106278;1276;25281;-77
2022/06/26 08:22:13;;;;;;;3.00;2.30;;;;;;;26.81;39.28;100599.91;107243;1277;22549;-76
2022/06/26 08:24:41;;;;;;;3.90;2.30;;;;;;;26.95;38.95;100592.24;105934;1284;22576;-78
2022/06/26 08:27:09;;;;;;;2.60;2.10;;;;;;;27.07;39.06;100590.13;105199;1284;24252;-79
2022/06/26 08:29:37;;;;;;;2.90;2.40;;;;;;;27.18;38.77;100590.20;105481;1284;22725;-78
2022/06/26 08:32:04;;;;;;;4.00;2.40;;;;;;;27.31;38.71;100601.34;105305;1281;22566;-80
2022/06/26 08:34:30;;;;;;;2.40;2.20;;;;;;;27.43;38.44;100601.84;106117;1276;22857;-78
2022/06/26 08:36:56;;;;;;;3.30;2.40;;;;;;;27.52;37.88;100596.85;105913;1276;24228;-84
2022/06/26 08:39:24;;;;;;;3.30;2.50;;;;;;;27.58;37.58;100601.99;106076;1276;25290;-79
2022/06/26 08:41:54;;;;;;;2.60;2.40;;;;;;;27.67;37.49;100599.85;106039;1276;22827;-79
2022/06/26 08:44:23;;;;;;;2.30;2.10;;;;;;;27.74;37.24;100595.01;106479;1270;25490;-78
2022/06/26 08:46:53;;;;;;;4.20;2.30;;;;;;;27.85;37.28;100594.64;106351;1270;25352;-75
2022/06/26 08:49:23;;;;;;;3.10;1.90;;;;;;;27.97;37.11;100592.26;106439;1270;25266;-78
2022/06/26 08:51:59;;;;;;;2.50;2.00;;;;;;;28.04;36.32;100591.94;106338;1270;23920;-78
2022/06/26 08:54:28;;;;;;;2.70;2.10;;;;;;;28.12;36.15;100592.34;106402;1270;22552;-77
2022/06/26 08:56:54;;;;;;;2.30;2.10;;;;;;;28.24;36.04;100593.40;106334;1270;22567;-80
2022/06/26 08:59:20;;;;;;;4.00;2.10;;;;;;;28.33;35.62;100599.05;106289;1270;25384;-78
2022/06/26 09:01:47;;;;;;;3.30;2.20;;;;;;;28.43;35.42;100600.92;106348;1270;24241;-81
2022/06/26 09:04:14;;;;;;;3.00;2.10;;;;;;;28.52;35.05;100590.63;106357;1270;22583;-80
2022/06/26 09:06:43;;;;;;;6.40;2.10;;;;;;;28.63;34.75;100585.77;106166;1270;25259;-81
2022/06/26 09:09:24;;;;;;;3.20;2.10;;;;;;;28.72;34.64;100588.64;106369;1270;23195;-76
2022/06/26 09:11:53;;;;;;;3.70;1.90;;;;;;;28.81;34.48;100589.88;106259;1270;22554;-79
2022/06/26 09:14:20;;;;;;;2.70;1.90;;;;;;;28.85;34.05;100591.20;106082;1270;22538;-78
2022/06/26 09:16:48;;;;;;;2.90;2.20;;;;;;;28.91;34.24;100596.45;106282;1270;22601;-77
2022/06/26 09:19:19;;;;;;;5.10;2.20;;;;;;;28.94;33.71;100591.38;106326;1270;22538;-78
2022/06/26 09:21:47;;;;;;;2.30;2.10;;;;;;;28.91;33.25;100593.23;106714;1270;22579;-78
2022/06/26 09:24:15;;;;;;;4.20;2.20;;;;;;;28.95;33.53;100590.56;106722;1270;22525;-77
2022/06/26 09:27:05;;;;;;;2.90;2.30;;;;;;;29.05;33.87;100586.63;106330;1270;25093;-79
2022/06/26 09:29:31;;;;;;;4.60;2.50;;;;;;;29.21;33.75;100592.02;106232;1270;22560;-77
2022/06/26 09:32:13;;;;;;;3.40;2.40;;;;;;;29.35;33.39;100591.91;106272;1270;22557;-78
2022/06/26 09:34:45;;;;;;;3.40;2.30;;;;;;;29.46;33.19;100588.30;106250;1270;26078;-76
2022/06/26 09:37:12;;;;;;;8.40;2.00;;;;;;;29.56;32.73;100596.85;106261;1270;22556;-76
2022/06/26 09:39:39;;;;;;;5.30;1.90;;;;;;;29.67;32.24;100591.03;106253;1270;22539;-76
2022/06/26 09:42:24;;;;;;;2.60;1.90;;;;;;;29.76;31.95;100592.28;106660;1270;22583;-75
2022/06/26 09:44:53;;;;;;;15.30;6.20;;;;;;;29.88;31.91;100585.40;107000;1271;22640;-77
2022/06/26 09:47:25;;;;;;;2.80;2.20;;;;;;;30.06;31.83;100595.27;107049;1273;22695;-80
2022/06/26 09:49:54;;;;;;;2.90;2.00;;;;;;;30.11;31.30;100601.02;106304;1273;22542;-77
2022/06/26 09:52:22;;;;;;;3.20;1.90;;;;;;;30.08;31.34;100593.11;106367;1270;23942;-78
2022/06/26 09:54:49;;;;;;;4.10;2.10;;;;;;;30.04;31.35;100592.00;106311;1270;22613;-78
2022/06/26 09:57:16;;;;;;;2.20;1.90;;;;;;;30.11;31.07;100593.92;106499;1270;24420;-78
2022/06/26 09:59:43;;;;;;;3.20;2.20;;;;;;;30.16;30.87;100594.59;106412;1270;23468;-74
2022/06/26 10:07:54;;;;;;;4.20;2.20;;;;;;;30.43;30.50;100593.82;106444;1271;25263;-72
2022/06/26 10:10:23;;;;;;;4.90;2.50;;;;;;;30.50;30.58;100584.30;106140;1270;23764;-71
2022/06/26 10:12:57;;;;;;;4.60;3.30;;;;;;;30.61;30.21;100580.73;106324;1270;22629;-73
2022/06/26 10:15:28;;;;;;;7.30;3.80;;;;;;;30.74;30.14;100582.92;106623;1270;22539;-73
2022/06/26 10:18:13;;;;;;;8.40;4.90;;;;;;;30.81;29.99;100578.84;106122;1271;23957;-75
2022/06/26 10:20:42;;;;;;;6.70;2.50;;;;;;;30.98;29.85;100588.02;105982;1270;22845;-74
2022/06/26 10:23:09;;;;;;;5.40;3.00;;;;;;;31.01;29.56;100590.43;105862;1276;25317;-74
2022/06/26 10:25:35;;;;;;;3.00;2.50;;;;;;;31.01;29.65;100583.85;105891;1275;24301;-76
2022/06/26 10:28:02;;;;;;;4.60;2.80;;;;;;;31.11;29.51;100581.83;105839;1276;24096;-77
2022/06/26 10:30:31;;;;;;;4.30;2.10;;;;;;;31.10;29.44;100577.44;105949;1275;23600;-73
2022/06/26 10:33:18;;;;;;;2.00;1.80;;;;;;;31.15;29.93;100568.73;105814;1276;24277;-75
2022/06/26 10:35:54;;;;;;;2.20;2.00;;;;;;;31.34;29.56;100566.42;105881;1276;25735;-74
2022/06/26 10:38:28;;;;;;;2.90;2.10;;;;;;;31.45;29.64;100580.91;105916;1275;25494;-87
2022/06/26 10:44:48;;;;;;;2.80;2.00;;;;;;;31.81;29.32;100572.43;106149;1272;25620;-78
2022/06/26 10:47:16;;;;;;;2.30;2.10;;;;;;;31.98;28.60;100564.95;106135;1270;22557;-75
2022/06/26 10:49:50;;;;;;;2.80;1.90;;;;;;;32.04;28.52;100564.01;106225;1270;22627;-76
2022/06/26 10:52:28;;;;;;;2.30;1.90;;;;;;;32.18;28.43;100565.08;106290;1270;22541;-74
2022/06/26 10:54:57;;;;;;;3.20;1.80;;;;;;;32.27;28.00;100566.77;106246;1273;25166;-73
2022/06/26 10:57:35;;;;;;;3.30;2.00;;;;;;;32.15;27.72;100569.48;106303;1273;24089;-73
2022/06/26 11:00:10;;;;;;;3.10;1.80;;;;;;;32.17;28.03;100568.80;106365;1270;24233;-73
2022/06/26 11:02:40;;;;;;;4.50;1.70;;;;;;;32.26;27.83;100558.29;106454;1270;24383;-75
2022/06/26 11:05:09;;;;;;;1.80;1.70;;;;;;;32.34;27.92;100568.35;106511;1271;22676;-75
2022/06/26 11:07:47;;;;;;;2.70;2.00;;;;;;;32.37;27.50;100565.70;106926;1270;22571;-74
2022/06/26 11:10:22;;;;;;;2.40;1.90;;;;;;;32.45;27.44;100565.46;106457;1271;24284;-75
2022/06/26 11:12:51;;;;;;;2.80;1.90;;;;;;;32.48;27.35;100567.02;106456;1270;25530;-73
2022/06/26 11:15:20;;;;;;;3.00;2.20;;;;;;;32.50;27.34;100566.99;106356;1270;22561;-73
2022/06/26 11:17:54;;;;;;;3.90;1.80;;;;;;;32.55;27.25;100562.02;106406;1270;22572;-72
2022/06/26 11:23:14;;;;;;;2.20;2.00;;;;;;;32.86;27.18;100548.17;106451;1270;22570;-70
2022/06/26 11:25:41;;;;;;;3.00;2.20;;;;;;;33.04;27.32;100548.73;106504;1270;25390;-70
2022/06/26 11:28:09;;;;;;;3.10;1.90;;;;;;;33.27;27.19;100551.30;106379;1270;22572;-70
2022/06/26 11:30:40;;;;;;;5.40;1.80;;;;;;;33.38;26.73;100560.97;106151;1270;25262;-71
2022/06/26 11:33:08;;;;;;;2.10;1.70;;;;;;;33.43;26.37;100566.23;106177;1270;22558;-72
2022/06/26 11:35:35;;;;;;;2.10;1.90;;;;;;;33.51;26.34;100560.91;106169;1270;24340;-74
2022/06/26 11:38:28;;;;;;;3.00;1.80;;;;;;;33.51;26.04;100560.52;106214;1271;23921;-71
2022/06/26 11:41:01;;;;;;;3.30;2.00;;;;;;;33.54;26.32;100564.42;106261;1273;25224;-73